createdAt,value
2019-03-27T00:01:48.921Z,8.53
2019-03-27T00:04:20.487Z,8.26
2019-03-27T00:06:50.932Z,8.09
2019-03-27T00:09:21.071Z,7.99
2019-03-27T00:11:51.706Z,8.21
2019-03-27T00:16:55.969Z,8.22
2019-03-27T00:19:26.206Z,8.16
2019-03-27T00:21:56.968Z,7.98
2019-03-27T00:24:26.983Z,7.98
2019-03-27T00:26:56.997Z,8.06
2019-03-27T00:29:27.152Z,8.27
2019-03-27T00:31:57.813Z,8.36
2019-03-27T00:34:27.905Z,8.51
2019-03-27T00:36:58.303Z,8.48
2019-03-27T00:39:28.804Z,8.37
2019-03-27T00:41:59.031Z,8.18
2019-03-27T00:44:29.603Z,8.14
2019-03-27T00:46:59.504Z,7.84
2019-03-27T00:49:29.547Z,7.84
2019-03-27T00:51:59.930Z,8.02
2019-03-27T00:54:30.555Z,8.24
2019-03-27T00:57:00.966Z,7.82
2019-03-27T00:59:31.744Z,8.27
2019-03-27T01:02:00.947Z,8.23
2019-03-27T01:04:31.307Z,8.23
2019-03-27T01:07:01.964Z,8.41
2019-03-27T01:09:32.518Z,8.28
2019-03-27T01:12:02.948Z,8.10
2019-03-27T01:14:33.558Z,8.10
2019-03-27T01:17:03.986Z,8.10
2019-03-27T01:19:35.468Z,8.28
2019-03-27T01:22:05.890Z,7.41
2019-03-27T01:24:36.299Z,7.41
2019-03-27T01:27:06.753Z,7.32
2019-03-27T01:29:35.896Z,7.25
2019-03-27T01:32:06.286Z,7.25
2019-03-27T01:34:36.759Z,7.58
2019-03-27T01:37:07.082Z,7.78
2019-03-27T01:39:37.527Z,7.41
2019-03-27T01:42:08.188Z,7.62
2019-03-27T01:44:38.719Z,7.62
2019-03-27T01:47:08.989Z,7.96
2019-03-27T01:49:39.144Z,8.24
2019-03-27T01:52:10.272Z,7.91
2019-03-27T01:54:40.891Z,7.67
2019-03-27T01:57:11.066Z,7.82
2019-03-27T01:59:41.560Z,7.97
2019-03-27T02:02:12.576Z,7.95
2019-03-27T02:04:43.128Z,7.74
2019-03-27T02:07:13.619Z,7.74
2019-03-27T02:09:43.938Z,7.95
2019-03-27T02:12:14.082Z,7.95
2019-03-27T02:14:44.566Z,8.06
2019-03-27T02:17:14.863Z,7.93
2019-03-27T02:19:45.030Z,7.93
2019-03-27T02:22:15.911Z,8.00
2019-03-27T02:24:46.302Z,7.98
2019-03-27T02:27:16.722Z,7.89
2019-03-27T02:29:45.941Z,7.97
2019-03-27T02:32:20.266Z,7.89
2019-03-27T02:34:48.090Z,7.73
2019-03-27T02:37:18.576Z,7.55
2019-03-27T02:39:48.955Z,7.59
2019-03-27T02:42:19.096Z,7.50
2019-03-27T02:44:49.936Z,7.50
2019-03-27T02:47:20.296Z,6.91
2019-03-27T02:49:50.737Z,7.18
2019-03-27T02:52:20.944Z,6.82
2019-03-27T02:54:51.046Z,6.96
2019-03-27T02:59:11.965Z,7.34
2019-03-27T03:01:42.405Z,7.49
2019-03-27T03:04:12.936Z,7.53
2019-03-27T03:06:43.050Z,7.20
2019-03-27T03:09:13.615Z,6.84
2019-03-27T03:11:43.958Z,7.05
2019-03-27T03:14:13.945Z,7.05
2019-03-27T03:16:44.430Z,6.90
2019-03-27T03:19:14.877Z,7.18
2019-03-27T03:21:46.577Z,7.12
2019-03-27T03:24:16.865Z,7.31
2019-03-27T03:26:50.600Z,7.58
2019-03-27T03:29:19.530Z,7.66
2019-03-27T03:31:49.922Z,7.65
2019-03-27T03:34:20.047Z,7.83
2019-03-27T03:36:51.755Z,7.71
2019-03-27T03:39:21.101Z,7.57
2019-03-27T03:41:51.487Z,7.65
2019-03-27T03:44:21.913Z,7.53
2019-03-27T03:46:59.471Z,7.53
2019-03-27T03:49:24.033Z,7.60
2019-03-27T03:51:54.735Z,7.34
2019-03-27T03:54:24.472Z,7.53
2019-03-27T03:56:57.704Z,7.61
2019-03-27T03:59:29.019Z,7.54
2019-03-27T04:02:03.867Z,7.80
2019-03-27T04:04:36.918Z,7.72
2019-03-27T04:07:07.017Z,7.66
2019-03-27T04:09:37.569Z,7.46
2019-03-27T04:12:07.808Z,7.26
2019-03-27T04:14:37.938Z,7.52
2019-03-27T04:17:17.102Z,7.42
2019-03-27T04:19:40.425Z,7.56
2019-03-27T04:22:10.934Z,7.51
2019-03-27T04:24:41.318Z,7.50
2019-03-27T04:27:11.866Z,7.58
2019-03-27T04:29:42.404Z,7.36
2019-03-27T04:32:13.833Z,7.58
2019-03-27T04:34:47.189Z,7.38
2019-03-27T04:37:18.118Z,7.43
2019-03-27T04:39:48.884Z,7.53
2019-03-27T04:42:21.315Z,7.28
2019-03-27T04:44:52.060Z,7.18
2019-03-27T04:47:32.185Z,6.98
2019-03-27T04:49:56.521Z,7.33
2019-03-27T04:52:27.537Z,7.33
2019-03-27T04:54:58.051Z,7.31
2019-03-27T04:57:29.425Z,7.17
2019-03-27T05:00:00.046Z,7.15
2019-03-27T05:02:31.348Z,7.05
2019-03-27T05:05:03.808Z,6.90
2019-03-27T05:07:34.393Z,6.97
2019-03-27T05:10:05.510Z,6.97
2019-03-27T05:12:38.426Z,7.22
2019-03-27T05:15:06.993Z,7.18
2019-03-27T05:17:45.761Z,7.08
2019-03-27T05:20:10.651Z,6.82
2019-03-27T05:22:40.893Z,7.06
2019-03-27T05:25:12.003Z,7.06
2019-03-27T05:27:42.738Z,7.06
2019-03-27T05:30:17.726Z,7.19
2019-03-27T05:32:46.872Z,7.32
2019-03-27T05:35:18.306Z,7.22
2019-03-27T05:37:49.312Z,7.18
2019-03-27T05:40:19.958Z,7.20
2019-03-27T05:43:00.494Z,7.34
2019-03-27T05:45:23.993Z,7.52
2019-03-27T05:47:59.862Z,7.42
2019-03-27T05:50:27.449Z,7.48
2019-03-27T05:52:57.959Z,7.51
2019-03-27T05:55:28.979Z,7.10
2019-03-27T05:58:00.150Z,6.91
2019-03-27T06:00:33.411Z,6.83
2019-03-27T06:03:03.674Z,7.48
2019-03-27T06:05:34.212Z,7.70
2019-03-27T06:08:05.152Z,7.70
2019-03-27T06:10:36.093Z,7.91
2019-03-27T06:13:07.535Z,8.01
2019-03-27T06:15:38.506Z,8.02
2019-03-27T06:18:13.248Z,8.10
2019-03-27T06:20:40.899Z,8.10
2019-03-27T06:23:12.443Z,7.73
2019-03-27T06:25:42.779Z,7.70
2019-03-27T06:28:12.954Z,7.99
2019-03-27T06:30:44.065Z,8.29
2019-03-27T06:33:15.291Z,8.63
2019-03-27T06:35:45.822Z,8.81
2019-03-27T06:38:16.898Z,8.72
2019-03-27T06:40:47.759Z,8.74
2019-03-27T06:43:18.819Z,8.64
2019-03-27T06:45:49.008Z,8.45
2019-03-27T06:48:26.146Z,8.46
2019-03-27T06:50:53.044Z,8.87
2019-03-27T06:53:24.105Z,8.61
2019-03-27T06:55:55.595Z,9.17
2019-03-27T06:58:26.722Z,9.03
2019-03-27T07:00:56.815Z,9.16
2019-03-27T07:03:27.287Z,9.03
2019-03-27T07:05:58.468Z,9.33
2019-03-27T07:08:29.147Z,9.21
2019-03-27T07:11:00.437Z,9.45
2019-03-27T07:13:31.625Z,9.72
2019-03-27T07:16:01.454Z,9.04
2019-03-27T07:18:39.971Z,9.04
2019-03-27T07:21:04.325Z,9.50
2019-03-27T07:23:35.491Z,9.56
2019-03-27T07:26:06.649Z,10.02
2019-03-27T07:28:36.123Z,10.02
2019-03-27T07:31:06.958Z,10.18
2019-03-27T07:33:38.288Z,10.24
2019-03-27T07:36:09.451Z,10.46
2019-03-27T07:38:41.289Z,10.31
2019-03-27T07:41:12.290Z,10.35
2019-03-27T07:43:43.502Z,10.46
2019-03-27T07:46:14.646Z,10.55
2019-03-27T07:48:53.720Z,10.55
2019-03-27T07:51:19.298Z,10.50
2019-03-27T07:53:51.291Z,10.42
2019-03-27T07:56:21.731Z,10.24
2019-03-27T07:58:51.270Z,10.59
2019-03-27T08:01:22.322Z,11.35
2019-03-27T08:03:53.448Z,11.35
2019-03-27T08:06:23.783Z,11.54
2019-03-27T08:08:53.298Z,12.66
2019-03-27T08:11:24.177Z,13.37
2019-03-27T08:13:54.763Z,13.85
2019-03-27T08:16:25.026Z,14.59
2019-03-27T08:19:06.846Z,14.97
2019-03-27T08:21:31.220Z,14.87
2019-03-27T08:24:02.296Z,15.24
2019-03-27T08:26:32.821Z,15.80
2019-03-27T08:29:04.290Z,15.85
2019-03-27T08:31:35.325Z,15.55
2019-03-27T08:34:06.819Z,17.16
2019-03-27T08:36:37.975Z,17.96
2019-03-27T08:39:09.967Z,18.43
2019-03-27T08:41:41.464Z,18.84
2019-03-27T08:44:11.948Z,19.56
2019-03-27T08:46:42.819Z,20.41
2019-03-27T08:49:21.903Z,22.86
2019-03-27T08:51:45.270Z,23.98
2019-03-27T08:54:16.142Z,23.30
2019-03-27T08:56:46.955Z,21.96
2019-03-27T08:59:17.771Z,23.97
2019-03-27T09:01:48.518Z,25.55
2019-03-27T09:04:19.198Z,27.70
2019-03-27T09:06:50.102Z,29.06
2019-03-27T09:09:20.738Z,30.71
2019-03-27T09:11:51.968Z,30.40
2019-03-27T09:14:25.511Z,28.57
2019-03-27T09:16:56.328Z,23.99
2019-03-27T09:19:35.694Z,23.99
2019-03-27T09:21:59.979Z,21.67
2019-03-27T09:24:30.946Z,21.07
2019-03-27T09:27:01.943Z,20.31
2019-03-27T09:29:33.306Z,20.06
2019-03-27T09:32:04.326Z,19.61
2019-03-27T09:34:35.024Z,19.43
2019-03-27T09:37:06.306Z,19.21
2019-03-27T09:39:36.821Z,17.51
2019-03-27T09:42:08.372Z,17.06
2019-03-27T09:44:38.994Z,17.09
2019-03-27T09:47:10.053Z,16.61
2019-03-27T09:49:49.528Z,16.36
2019-03-27T09:52:14.334Z,15.64
2019-03-27T09:54:44.950Z,15.61
2019-03-27T09:57:15.652Z,14.79
2019-03-27T09:59:45.018Z,14.58
2019-03-27T10:02:16.369Z,14.58
2019-03-27T10:04:47.545Z,15.73
2019-03-27T10:07:18.650Z,16.26
2019-03-27T10:09:50.360Z,17.07
2019-03-27T10:12:21.037Z,17.79
2019-03-27T10:14:52.078Z,17.26
2019-03-27T10:17:23.022Z,17.68
2019-03-27T10:20:03.324Z,18.11
2019-03-27T10:22:26.345Z,18.14
2019-03-27T10:24:57.146Z,16.51
2019-03-27T10:27:27.588Z,16.57
2019-03-27T10:29:57.951Z,15.73
2019-03-27T10:32:28.099Z,15.73
2019-03-27T10:34:58.865Z,15.32
2019-03-27T10:37:28.950Z,15.03
2019-03-27T10:39:59.600Z,13.56
2019-03-27T10:42:29.981Z,13.58
2019-03-27T10:45:00.031Z,13.58
2019-03-27T10:47:30.570Z,13.79
2019-03-27T10:50:00.921Z,13.95
2019-03-27T10:52:31.106Z,14.58
2019-03-27T10:55:01.744Z,14.93
2019-03-27T10:57:32.024Z,13.68
2019-03-27T11:00:02.994Z,14.13
2019-03-27T11:02:34.839Z,16.41
2019-03-27T11:05:05.459Z,17.68
2019-03-27T11:07:36.309Z,17.49
2019-03-27T11:10:07.777Z,17.25
2019-03-27T11:12:38.389Z,18.32
2019-03-27T11:15:10.762Z,22.97
2019-03-27T11:17:41.235Z,25.17
2019-03-27T11:20:12.521Z,23.96
2019-03-27T11:22:43.537Z,21.77
2019-03-27T11:25:17.940Z,21.77
2019-03-27T11:27:49.000Z,23.50
2019-03-27T11:30:25.516Z,24.34
2019-03-27T11:32:57.795Z,22.54
2019-03-27T11:35:29.294Z,22.93
2019-03-27T11:38:01.300Z,21.14
2019-03-27T11:40:32.895Z,21.21
2019-03-27T11:43:05.129Z,18.71
2019-03-27T11:45:37.816Z,18.57
2019-03-27T11:48:09.498Z,18.13
2019-03-27T11:50:45.309Z,18.05
2019-03-27T11:53:12.634Z,16.88
2019-03-27T11:55:42.611Z,15.74
2019-03-27T11:58:18.107Z,15.74
2019-03-27T12:00:54.799Z,14.71
2019-03-27T12:03:22.617Z,15.01
2019-03-27T12:05:52.967Z,13.63
2019-03-27T12:08:23.869Z,13.99
2019-03-27T12:10:54.367Z,14.93
2019-03-27T12:13:25.432Z,14.66
2019-03-27T12:15:56.363Z,14.36
2019-03-27T12:18:27.053Z,15.01
2019-03-27T12:20:59.783Z,19.21
2019-03-27T12:23:30.765Z,23.13
2019-03-27T12:26:02.059Z,25.08
2019-03-27T12:28:32.966Z,27.18
2019-03-27T12:31:03.969Z,29.69
2019-03-27T12:33:35.312Z,27.39
2019-03-27T12:36:06.491Z,23.64
2019-03-27T12:38:38.933Z,18.82
2019-03-27T12:41:10.319Z,15.77
2019-03-27T12:43:42.521Z,13.96
2019-03-27T12:46:13.695Z,12.94
2019-03-27T12:48:43.649Z,12.94
2019-03-27T12:51:14.295Z,13.36
2019-03-27T12:53:44.939Z,13.36
2019-03-27T12:56:15.726Z,13.16
2019-03-27T12:58:46.305Z,13.18
2019-03-27T13:01:17.803Z,13.03
2019-03-27T13:03:48.817Z,12.99
2019-03-27T13:06:20.299Z,13.56
2019-03-27T13:08:52.077Z,14.44
2019-03-27T13:11:23.301Z,14.44
2019-03-27T13:13:54.073Z,14.99
2019-03-27T13:16:24.932Z,16.52
2019-03-27T13:18:56.374Z,16.85
2019-03-27T13:21:27.118Z,16.27
2019-03-27T13:23:58.488Z,16.32
2019-03-27T13:26:29.595Z,17.77
2019-03-27T13:29:01.566Z,18.19
2019-03-27T13:31:32.297Z,18.19
2019-03-27T13:34:03.311Z,18.87
2019-03-27T13:36:36.536Z,18.29
2019-03-27T13:39:09.315Z,18.00
2019-03-27T13:41:40.572Z,17.02
2019-03-27T13:44:11.596Z,17.02
2019-03-27T13:46:41.281Z,14.97
2019-03-27T13:49:12.538Z,14.01
2019-03-27T13:51:43.978Z,13.99
2019-03-27T13:54:14.738Z,14.33
2019-03-27T13:56:45.459Z,14.42
2019-03-27T13:59:16.498Z,14.98
2019-03-27T14:01:47.190Z,14.09
2019-03-27T14:04:18.094Z,14.10
2019-03-27T14:06:49.660Z,14.30
2019-03-27T14:09:19.454Z,14.43
2019-03-27T14:11:50.514Z,15.45
2019-03-27T14:14:21.625Z,14.51
2019-03-27T14:16:52.827Z,14.51
2019-03-27T14:19:23.482Z,15.09
2019-03-27T14:21:55.213Z,15.74
2019-03-27T14:24:26.456Z,15.98
2019-03-27T14:26:56.995Z,15.68
2019-03-27T14:29:27.562Z,15.26
2019-03-27T14:31:58.605Z,14.90
2019-03-27T14:34:29.309Z,15.62
2019-03-27T14:37:00.423Z,15.62
2019-03-27T14:39:31.602Z,15.91
2019-03-27T14:42:03.275Z,17.17
2019-03-27T14:44:36.417Z,17.75
2019-03-27T14:47:08.293Z,17.86
2019-03-27T14:49:39.599Z,17.86
2019-03-27T14:52:09.797Z,17.81
2019-03-27T14:54:41.483Z,18.35
2019-03-27T14:57:13.474Z,17.60
2019-03-27T14:59:43.521Z,16.20
2019-03-27T15:02:15.295Z,15.21
2019-03-27T15:04:46.291Z,15.21
2019-03-27T15:07:17.578Z,13.52
2019-03-27T15:09:48.078Z,14.54
2019-03-27T15:12:19.286Z,14.54
2019-03-27T15:14:50.451Z,14.66
2019-03-27T15:17:21.290Z,14.21
2019-03-27T15:19:51.968Z,14.90
2019-03-27T15:22:23.034Z,14.39
2019-03-27T15:24:54.292Z,14.59
2019-03-27T15:27:25.055Z,14.46
2019-03-27T15:29:56.039Z,13.86
2019-03-27T15:32:27.780Z,13.93
2019-03-27T15:34:57.390Z,14.24
2019-03-27T15:37:28.497Z,13.86
2019-03-27T15:40:00.478Z,14.19
2019-03-27T15:42:31.327Z,14.04
2019-03-27T15:45:02.310Z,14.04
2019-03-27T15:47:34.466Z,14.34
2019-03-27T15:50:05.608Z,14.62
2019-03-27T15:52:37.093Z,14.16
2019-03-27T15:55:08.825Z,14.16
2019-03-27T15:57:40.412Z,13.51
2019-03-27T16:00:11.246Z,13.94
2019-03-27T16:02:42.895Z,13.63
2019-03-27T16:05:14.299Z,13.63
2019-03-27T16:07:46.772Z,13.85
2019-03-27T16:10:19.515Z,14.29
2019-03-27T16:12:49.446Z,13.83
2019-03-27T16:15:20.516Z,13.93
2019-03-27T16:17:52.745Z,14.16
2019-03-27T16:20:24.126Z,14.16
2019-03-27T16:22:55.977Z,14.41
2019-03-27T16:25:27.571Z,14.48
2019-03-27T16:27:58.685Z,14.49
2019-03-27T16:30:28.555Z,14.09
2019-03-27T16:32:59.102Z,13.56
2019-03-27T16:35:29.809Z,13.56
2019-03-27T16:38:00.350Z,13.92
2019-03-27T16:40:49.097Z,14.03
2019-03-27T16:43:19.986Z,13.07
2019-03-27T16:45:51.022Z,13.50
2019-03-27T16:48:21.753Z,13.46
2019-03-27T16:50:52.030Z,13.09
2019-03-27T16:53:22.977Z,13.04
2019-03-27T16:55:53.103Z,13.40
2019-03-27T16:58:23.677Z,13.63
2019-03-27T17:00:52.962Z,13.76
2019-03-27T17:03:23.510Z,13.59
2019-03-27T17:05:54.198Z,13.82
2019-03-27T17:08:24.024Z,13.82
2019-03-27T17:10:54.855Z,13.80
2019-03-27T17:13:26.535Z,13.11
2019-03-27T17:15:57.407Z,13.01
2019-03-27T17:18:28.281Z,12.89
2019-03-27T17:20:58.974Z,13.23
2019-03-27T17:23:30.491Z,13.19
2019-03-27T17:26:01.201Z,13.02
2019-03-27T17:28:33.015Z,12.86
2019-03-27T17:31:03.932Z,12.61
2019-03-27T17:33:34.468Z,12.50
2019-03-27T17:36:04.271Z,12.35
2019-03-27T17:38:34.253Z,12.64
2019-03-27T17:41:04.851Z,12.47
2019-03-27T17:43:35.209Z,12.33
2019-03-27T17:46:05.975Z,12.12
2019-03-27T17:48:36.895Z,11.60
2019-03-27T17:51:07.979Z,11.84
2019-03-27T17:53:39.053Z,12.23
2019-03-27T17:56:10.026Z,12.15
2019-03-27T17:58:40.949Z,12.01
2019-03-27T18:01:11.927Z,11.98
2019-03-27T18:03:43.007Z,11.95
2019-03-27T18:06:13.445Z,11.83
2019-03-27T18:08:44.120Z,11.39
2019-03-27T18:11:15.106Z,11.39
2019-03-27T18:13:46.110Z,11.32
2019-03-27T18:16:17.428Z,11.13
2019-03-27T18:18:47.943Z,10.99
2019-03-27T18:21:21.286Z,11.13
2019-03-27T18:23:52.069Z,10.87
2019-03-27T18:26:23.349Z,10.87
2019-03-27T18:28:53.982Z,10.93
2019-03-27T18:31:25.518Z,10.95
2019-03-27T18:33:56.314Z,10.75
2019-03-27T18:36:27.333Z,11.00
2019-03-27T18:38:58.051Z,11.00
2019-03-27T18:41:44.012Z,10.72
2019-03-27T18:44:15.102Z,10.46
2019-03-27T18:46:46.705Z,10.51
2019-03-27T18:49:15.976Z,10.45
2019-03-27T18:51:47.072Z,10.45
2019-03-27T18:54:18.639Z,10.40
2019-03-27T18:56:48.255Z,10.45
2019-03-27T18:59:19.084Z,10.54
2019-03-27T19:01:50.008Z,10.55
2019-03-27T19:04:21.326Z,10.69
2019-03-27T19:06:52.063Z,10.70
2019-03-27T19:09:22.810Z,10.26
2019-03-27T19:11:52.963Z,10.24
2019-03-27T19:14:23.397Z,10.07
2019-03-27T19:16:54.302Z,9.87
2019-03-27T19:19:25.165Z,9.67
2019-03-27T19:21:57.795Z,9.48
2019-03-27T19:24:28.575Z,9.35
2019-03-27T19:26:59.422Z,9.15
2019-03-27T19:29:30.110Z,9.15
2019-03-27T19:32:00.974Z,9.15
2019-03-27T19:34:31.974Z,9.08
2019-03-27T19:37:03.908Z,9.04
2019-03-27T19:39:34.985Z,8.92
2019-03-27T19:42:05.993Z,9.00
2019-03-27T19:44:37.290Z,8.93
2019-03-27T19:47:07.995Z,8.80
2019-03-27T19:49:38.834Z,8.98
2019-03-27T19:52:10.373Z,8.94
2019-03-27T19:54:41.159Z,8.91
2019-03-27T19:57:12.530Z,8.84
2019-03-27T19:59:44.659Z,8.95
2019-03-27T20:02:15.042Z,9.04
2019-03-27T20:04:46.410Z,8.57
2019-03-27T20:07:17.696Z,8.78
2019-03-27T20:09:48.911Z,8.42
2019-03-27T20:12:20.520Z,8.42
2019-03-27T20:14:51.513Z,8.70
2019-03-27T20:17:22.579Z,8.70
2019-03-27T20:19:53.915Z,8.84
2019-03-27T20:22:25.010Z,8.86
2019-03-27T20:24:56.085Z,8.93
2019-03-27T20:27:27.320Z,8.91
2019-03-27T20:29:58.543Z,8.73
2019-03-27T20:32:29.823Z,8.54
2019-03-27T20:35:00.797Z,8.54
2019-03-27T20:37:32.002Z,8.45
2019-03-27T20:40:03.154Z,8.36
2019-03-27T20:42:34.164Z,8.29
2019-03-27T20:45:08.923Z,8.32
2019-03-27T20:47:40.271Z,8.05
2019-03-27T20:50:12.981Z,7.92
2019-03-27T20:52:44.591Z,7.72
2019-03-27T20:55:29.563Z,7.61
2019-03-27T20:57:51.584Z,7.56
2019-03-27T21:00:24.628Z,7.58
2019-03-27T21:02:57.560Z,7.54
2019-03-27T21:05:27.652Z,7.49
2019-03-27T21:07:59.628Z,7.32
2019-03-27T21:10:29.294Z,7.50
2019-03-27T21:13:00.343Z,7.83
2019-03-27T21:15:31.306Z,7.54
2019-03-27T21:18:02.552Z,7.33
2019-03-27T21:20:33.560Z,7.14
2019-03-27T21:23:04.561Z,7.14
2019-03-27T21:25:34.661Z,6.98
2019-03-27T21:28:04.060Z,6.83
2019-03-27T21:30:35.175Z,6.63
2019-03-27T21:33:07.918Z,6.36
2019-03-27T21:35:39.126Z,6.10
2019-03-27T21:38:10.450Z,5.94
2019-03-27T21:40:41.305Z,6.14
2019-03-27T21:43:12.327Z,6.14
2019-03-27T21:45:43.659Z,6.13
2019-03-27T21:48:14.558Z,5.77
2019-03-27T21:50:45.323Z,5.77
2019-03-27T21:53:15.949Z,5.90
2019-03-27T21:55:46.805Z,5.85
2019-03-27T21:58:18.511Z,5.50
2019-03-27T22:00:49.069Z,5.54
2019-03-27T22:03:20.536Z,5.65
2019-03-27T22:05:51.362Z,5.81
2019-03-27T22:08:22.810Z,5.78
2019-03-27T22:10:53.463Z,5.66
2019-03-27T22:13:24.061Z,5.82
2019-03-27T22:15:55.006Z,5.70
2019-03-27T22:18:26.010Z,5.54
2019-03-27T22:20:56.780Z,5.05
2019-03-27T22:23:26.439Z,4.89
2019-03-27T22:25:57.271Z,4.81
2019-03-27T22:28:28.306Z,4.64
2019-03-27T22:30:59.005Z,4.68
2019-03-27T22:33:47.054Z,4.82
2019-03-27T22:36:18.139Z,4.95
2019-03-27T22:38:49.118Z,4.93
2019-03-27T22:41:19.812Z,4.85
2019-03-27T22:43:49.289Z,4.94
2019-03-27T22:46:21.034Z,4.62
2019-03-27T22:48:53.030Z,4.60
2019-03-27T22:51:24.917Z,4.56
2019-03-27T22:53:55.750Z,4.70
2019-03-27T22:56:25.303Z,4.93
2019-03-27T22:58:56.844Z,4.71
2019-03-27T23:01:46.461Z,4.43
2019-03-27T23:04:17.006Z,4.21
2019-03-27T23:06:47.670Z,4.42
2019-03-27T23:09:18.308Z,4.53
2019-03-27T23:11:49.330Z,4.55
2019-03-27T23:14:19.993Z,4.53
2019-03-27T23:16:50.737Z,4.66
2019-03-27T23:19:21.007Z,4.37
2019-03-27T23:21:52.293Z,4.05
2019-03-27T23:24:23.060Z,4.26
2019-03-27T23:26:53.841Z,4.23
2019-03-27T23:29:25.009Z,4.22
2019-03-27T23:31:55.933Z,4.15
2019-03-27T23:34:26.330Z,4.23
2019-03-27T23:36:57.428Z,4.18
2019-03-27T23:39:28.346Z,4.00
2019-03-27T23:41:58.950Z,3.96
2019-03-27T23:44:30.897Z,3.80
2019-03-27T23:47:01.375Z,3.76
2019-03-27T23:49:32.317Z,3.55
2019-03-27T23:52:02.989Z,3.49
2019-03-27T23:54:34.299Z,3.51
2019-03-27T23:57:05.019Z,3.45
2019-03-27T23:59:35.060Z,3.40
